Ocean Sapphire — VRKL8 — position and weather

sailwx.info

Track history (hours):
 
Tides and Currents Weather Stations Pressure Air Temp Water Temp Dewpoint Dewpoint Depression Visibility Wind Speed Wind Dir Waves Ship Positions

Ocean Sapphire

Last reported at 2017-Oct-08 07:25 UTC. Time now 2017-Oct-18 16:40 UTC.
Position N 01°11' E 103°50'.
Warning: this ship's position is 10 days out of date.

Length 229 m; draft 14.8 m.

Type: Cargo ship. MMSI: 477065400.

Date/timePositionNaut miles runAvg speedWind from/ knotsBaromVisibWave heightAir tempDewpointWater temp
2017-Oct-08 07:25N 01°11' E 103°50'1 2.4
2017-Oct-08 07:00N 01°12' E 103°51'1 2.5
2017-Oct-08 06:30N 01°12' E 103°52'1 2.6
2017-Oct-08 06:00N 01°13' E 103°53'1 2.6
2017-Oct-08 05:30N 01°13' E 103°54'5 9.1
2017-Oct-08 05:00N 01°17' E 103°57'0 0.0
2017-Oct-08 04:26N 01°17' E 103°57'0 0.0
2017-Oct-08 03:39N 01°17' E 103°57'0 0.0
2017-Oct-08 03:28N 01°17' E 103°57'0 0.4
2017-Oct-08 02:55N 01°17' E 103°57'3426.0
2017-Oct-08 01:37N 01°17' E 103°23'112.0
2017-Oct-08 01:30N 01°16' E 103°24'712.3
2017-Oct-08 00:58N 01°13' E 103°30'612.9
2017-Oct-08 00:31N 01°12' E 103°36'612.5
2017-Oct-08 00:01N 01°10' E 103°41'510.0
2017-Oct-07 23:31N 01°10' E 103°46'510.3
2017-Oct-07 22:59N 01°12' E 103°51'5 9.4
2017-Oct-07 22:30N 01°14' E 103°55'3 6.1
2017-Oct-07 21:59N 01°17' E 103°57'0 0.5
2017-Oct-07 21:27N 01°17' E 103°57'0 0.1
2017-Oct-07 20:55N 01°17' E 103°57'0 0.4
2017-Oct-07 20:20N 01°17' E 103°57'0 0.5
2017-Oct-07 19:55N 01°17' E 103°57'0 0.0
2017-Oct-07 19:27N 01°17' E 103°57'0 0.1
2017-Oct-07 18:59N 01°17' E 103°57'0 0.1
2017-Oct-07 18:16N 01°17' E 103°57'0 0.0
2017-Oct-07 17:59N 01°17' E 103°57'0 0.0
2017-Oct-07 17:25N 01°17' E 103°57'0 0.0
2017-Oct-07 16:57N 01°17' E 103°57'0 0.0
2017-Oct-07 16:24N 01°17' E 103°57'0 0.4
2017-Oct-07 15:53N 01°17' E 103°57'0 0.5
2017-Oct-07 15:24N 01°17' E 103°57'0 0.0
2017-Oct-07 14:49N 01°17' E 103°57'0 0.0
2017-Oct-07 14:23N 01°17' E 103°57'0 0.1
2017-Oct-07 13:57N 01°17' E 103°57'0 0.1
2017-Oct-07 13:19N 01°17' E 103°57'0 0.0
2017-Oct-07 12:54N 01°17' E 103°57'0 0.0
2017-Oct-07 12:03N 01°17' E 103°57'0 0.8
2017-Oct-07 11:53N 01°17' E 103°57'0 0.2
2017-Oct-07 11:29N 01°17' E 103°57'0 0.1
2017-Oct-07 10:56N 01°17' E 103°57'0 0.0
2017-Oct-07 10:29N 01°17' E 103°57'0 0.0
2017-Oct-07 09:56N 01°17' E 103°57'0 0.3
2017-Oct-07 09:30N 01°17' E 103°57'0 0.2
2017-Oct-07 08:59N 01°17' E 103°57'0 0.4
2017-Oct-07 08:29N 01°17' E 103°57'0 0.4
2017-Oct-07 07:53N 01°17' E 103°57'0 0.6
2017-Oct-07 07:27N 01°17' E 103°57'0 0.5
2017-Oct-07 06:56N 01°17' E 103°57'0 0.0
2017-Oct-07 06:29N 01°17' E 103°57'0 0.1
2017-Oct-07 05:35N 01°17' E 103°57'0 1.9
2017-Oct-07 05:26N 01°17' E 103°57'0 0.0
2017-Oct-07 05:00N 01°17' E 103°57'0 0.0
2017-Oct-07 00:34N 01°17' E 103°57'0 0.1
2017-Oct-07 00:29N 01°16' E 103°57'0 0.8
2017-Oct-07 00:00N 01°16' E 103°57'2 5.0
2017-Oct-06 23:30N 01°16' E 103°59'  
Track history (hours):
 
Tides and Currents Weather Stations Pressure Air Temp Water Temp Dewpoint Dewpoint Depression Visibility Wind Speed Wind Dir Waves Ship Positions

Ocean Sapphire

Last reported at 2017-Oct-08 07:25 UTC. Time now 2017-Oct-18 16:40 UTC.
Position N 01°11' E 103°50'.
Warning: this ship's position is 10 days out of date.

Length 229 m; draft 14.8 m.

Type: Cargo ship. MMSI: 477065400.

Date/timePositionNaut miles runAvg speedWind from/ knotsBaromVisibWave heightAir tempDewpointWater temp
2017-Oct-08 07:25N 01°11' E 103°50'1 2.4
2017-Oct-08 07:00N 01°12' E 103°51'1 2.5
2017-Oct-08 06:30N 01°12' E 103°52'1 2.6
2017-Oct-08 06:00N 01°13' E 103°53'1 2.6
2017-Oct-08 05:30N 01°13' E 103°54'5 9.1
2017-Oct-08 05:00N 01°17' E 103°57'0 0.0
2017-Oct-08 04:26N 01°17' E 103°57'0 0.0
2017-Oct-08 03:39N 01°17' E 103°57'0 0.0
2017-Oct-08 03:28N 01°17' E 103°57'0 0.4
2017-Oct-08 02:55N 01°17' E 103°57'3426.0
2017-Oct-08 01:37N 01°17' E 103°23'112.0
2017-Oct-08 01:30N 01°16' E 103°24'712.3
2017-Oct-08 00:58N 01°13' E 103°30'612.9
2017-Oct-08 00:31N 01°12' E 103°36'612.5
2017-Oct-08 00:01N 01°10' E 103°41'510.0
2017-Oct-07 23:31N 01°10' E 103°46'510.3
2017-Oct-07 22:59N 01°12' E 103°51'5 9.4
2017-Oct-07 22:30N 01°14' E 103°55'3 6.1
2017-Oct-07 21:59N 01°17' E 103°57'0 0.5
2017-Oct-07 21:27N 01°17' E 103°57'0 0.1
2017-Oct-07 20:55N 01°17' E 103°57'0 0.4
2017-Oct-07 20:20N 01°17' E 103°57'0 0.5
2017-Oct-07 19:55N 01°17' E 103°57'0 0.0
2017-Oct-07 19:27N 01°17' E 103°57'0 0.1
2017-Oct-07 18:59N 01°17' E 103°57'0 0.1
2017-Oct-07 18:16N 01°17' E 103°57'0 0.0
2017-Oct-07 17:59N 01°17' E 103°57'0 0.0
2017-Oct-07 17:25N 01°17' E 103°57'0 0.0
2017-Oct-07 16:57N 01°17' E 103°57'0 0.0
2017-Oct-07 16:24N 01°17' E 103°57'0 0.4
2017-Oct-07 15:53N 01°17' E 103°57'0 0.5
2017-Oct-07 15:24N 01°17' E 103°57'0 0.0
2017-Oct-07 14:49N 01°17' E 103°57'0 0.0
2017-Oct-07 14:23N 01°17' E 103°57'0 0.1
2017-Oct-07 13:57N 01°17' E 103°57'0 0.1
2017-Oct-07 13:19N 01°17' E 103°57'0 0.0
2017-Oct-07 12:54N 01°17' E 103°57'0 0.0
2017-Oct-07 12:03N 01°17' E 103°57'0 0.8
2017-Oct-07 11:53N 01°17' E 103°57'0 0.2
2017-Oct-07 11:29N 01°17' E 103°57'0 0.1
2017-Oct-07 10:56N 01°17' E 103°57'0 0.0
2017-Oct-07 10:29N 01°17' E 103°57'0 0.0
2017-Oct-07 09:56N 01°17' E 103°57'0 0.3
2017-Oct-07 09:30N 01°17' E 103°57'0 0.2
2017-Oct-07 08:59N 01°17' E 103°57'0 0.4
2017-Oct-07 08:29N 01°17' E 103°57'0 0.4
2017-Oct-07 07:53N 01°17' E 103°57'0 0.6
2017-Oct-07 07:27N 01°17' E 103°57'0 0.5
2017-Oct-07 06:56N 01°17' E 103°57'0 0.0
2017-Oct-07 06:29N 01°17' E 103°57'0 0.1
2017-Oct-07 05:35N 01°17' E 103°57'0 1.9
2017-Oct-07 05:26N 01°17' E 103°57'0 0.0
2017-Oct-07 05:00N 01°17' E 103°57'0 0.0
2017-Oct-07 00:34N 01°17' E 103°57'0 0.1
2017-Oct-07 00:29N 01°16' E 103°57'0 0.8
2017-Oct-07 00:00N 01°16' E 103°57'2 5.0
2017-Oct-06 23:30N 01°16' E 103°59'  

Dump ship's entire track history